メインページ
METAR-TAF:

METAR-TAF

空港 :

ウィーン国際空港

ウィーン, オーストリア

緯度: 48-07N, 経度: 016-34E, 海抜: 183m

現時点の気象観測

当レポートは25分前の23:20(UTC)に作成
西の風 7kt
気温 20°C
湿度 73%
気圧 1010 hPa
視程10km以上
1,500メートル以下は雲なし、積乱雲なし

METAR: LOWW 162320Z 26007KT CAVOK 20/15 Q1010 NOSIG

時間: 01:45 (23:45 UTC)

予報

当レポートは30分前の23:15(UTC)に作成
予報は17日の 00時(UTC)から 18日の 06時(UTC)まで有効
西の風 7kt
視程10km以上
1,500メートル以下は雲なし、積乱雲なし
17日の 05時(UTC)から 17日の 07時(UTC)まで徐々に
西/北西の風 13kt
視程10km以上
高度5000ftの雲はほとんどない
17日の 08時(UTC)から 17日の 13時(UTC)まで一時的に
北西の風 17kt、最大27ktの突風を伴う
高度5000ftの雲は散在している
高度5000ftの雲はほとんどない, 塔状積雲.
17日の 1300時(UTC)から
北/北西の風 20kt、最大30ktの突風を伴う
視程10km以上
1,500メートル以下は雲なし、積乱雲なし
17日の 17時(UTC)から 17日の 19時(UTC)まで徐々に
西/北西の風 12kt
18日の 04時(UTC)から 18日の 06時(UTC)まで一時的に
北/北西の風 15kt、最大25ktの突風を伴う

TAF: LOWW 162315Z 1700/1806 28007KT CAVOK TX29/1714Z TN18/1702Z BECMG 1705/1707 29013KT 9999 FEW050 TEMPO 1708/1713 31017G27KT SCT050 FEW050TCU FM171300 33020G30KT CAVOK BECMG 1717/1719 29012KT TEMPO 1804/1806 33015G25KT

4,000以上の空港の気象観測と天気予報(METAR報とTAF報)

利用可能な観測所は地図上に黄色い丸と赤い丸で示す。

丸の上にカーソルを重ねると観測所名を参照できる。

次にクリックすると気象観測と天気予報を参照できる。

マップの切り替え:黒色「×」印の緑ボタンをクリックして拡大、「-」印の緑ボタンをクリックして縮小、緑色の三角印をクリックして隣りの地図に切り替え


METAR-TAF: